Prescott, Iowa
Current Conditions -  °F | °C
As of 4:15 AM on Thursday 23 Oct 2014 (Local Time) from KCSQ Reporting Station
Overcast Overcast  
Wind Chill: 54°   Ceiling: 9000
Heat Index: 54°   Visibility: 10mi
Dew Point: 54°   Wind: 13mph
Humidity: 100%   Direction: 190°S
Pressure: 30.06"   Gusts: NA
Location:  41.02°N, 94.61°W
Report Text: KCSQ 230915Z AUTO 19011KT 10SM OVC090 12/12 A3006 RMK AO2
Loading
Personal Weather Stations






























Interactive Weather Map
Tropical Storm Tracking
New forecast layout! Learn more

10-Day Weather Forecast

Advertisements
Track Severe Weather on mobile